createdAt,value
2022-09-14T00:34:36.893Z,20.90
2022-09-14T00:37:05.261Z,20.94
2022-09-14T00:43:20.475Z,20.88
2022-09-14T00:45:48.583Z,20.92
2022-09-14T00:48:16.672Z,20.98
2022-09-14T00:50:46.044Z,21.01
2022-09-14T00:53:13.999Z,21.04
2022-09-14T00:59:42.727Z,20.97
2022-09-14T01:02:12.131Z,20.98
2022-09-14T01:16:19.130Z,20.99
2022-09-14T01:18:49.645Z,21.05
2022-09-14T01:21:21.526Z,20.98
2022-09-14T03:32:06.056Z,20.92
2022-09-14T06:25:55.018Z,21.15
2022-09-14T07:24:15.216Z,21.14
2022-09-14T07:27:29.247Z,21.54
2022-09-14T07:33:22.450Z,21.53
2022-09-14T07:39:52.213Z,21.49
2022-09-14T07:42:55.540Z,21.50
2022-09-14T07:45:25.676Z,21.44
2022-09-14T07:47:53.580Z,21.49
2022-09-14T07:50:21.681Z,21.51
2022-09-14T07:52:52.348Z,21.59
2022-09-14T07:55:20.310Z,21.58
2022-09-14T07:57:56.180Z,21.60
2022-09-14T08:00:25.304Z,21.52
2022-09-14T08:02:54.015Z,21.55
2022-09-14T08:05:22.124Z,21.55
2022-09-14T08:07:55.811Z,21.48
2022-09-14T08:10:23.910Z,21.50
2022-09-14T08:12:52.958Z,21.52
2022-09-14T08:15:29.507Z,21.51
2022-09-14T08:35:27.145Z,21.97
2022-09-14T08:41:50.595Z,22.19
2022-09-14T08:44:20.661Z,22.16
2022-09-14T08:46:49.673Z,22.28
2022-09-14T08:49:21.936Z,22.28
2022-09-14T08:51:50.270Z,22.32
2022-09-14T08:54:18.173Z,22.36
2022-09-14T08:56:50.366Z,22.28
2022-09-14T08:59:25.924Z,22.44
2022-09-14T09:01:59.258Z,22.44
2022-09-14T09:04:33.153Z,22.48
2022-09-14T09:07:04.683Z,22.50
2022-09-14T09:09:37.550Z,22.52
2022-09-14T09:12:07.029Z,22.63
2022-09-14T09:14:36.776Z,22.68
2022-09-14T09:17:07.179Z,22.70
2022-09-14T09:19:36.128Z,22.77
2022-09-14T09:22:05.963Z,22.82
2022-09-14T09:24:37.430Z,22.90
2022-09-14T09:27:10.902Z,22.97
2022-09-14T09:29:38.887Z,23.02
2022-09-14T09:32:07.498Z,23.07
2022-09-14T09:34:35.839Z,23.14
2022-09-14T09:37:04.039Z,23.22
2022-09-14T09:39:32.723Z,23.29
2022-09-14T09:42:02.549Z,23.31
2022-09-14T09:44:31.838Z,23.39
2022-09-14T09:47:00.539Z,23.40
2022-09-14T09:49:31.183Z,23.31
2022-09-14T09:52:07.392Z,23.54
2022-09-14T09:54:35.369Z,23.57
2022-09-14T09:57:04.658Z,23.64
2022-09-14T09:59:36.458Z,23.76
2022-09-14T10:02:25.218Z,23.79
2022-09-14T10:05:01.630Z,23.84
2022-09-14T10:07:30.317Z,23.98
2022-09-14T10:09:59.514Z,24.08
2022-09-14T10:12:27.449Z,24.24
2022-09-14T10:15:09.097Z,24.34
2022-09-14T10:17:37.053Z,24.48
2022-09-14T10:20:05.675Z,24.60
2022-09-14T10:22:34.267Z,24.74
2022-09-14T10:25:22.237Z,24.93
2022-09-14T10:41:31.587Z,25.47
2022-09-14T11:48:38.382Z,30.02
2022-09-14T12:05:52.647Z,31.73
2022-09-14T12:08:28.901Z,31.90
2022-09-14T12:11:01.395Z,32.13
2022-09-14T12:13:29.365Z,32.24
2022-09-14T12:16:04.412Z,32.36
2022-09-14T12:18:32.830Z,32.06
2022-09-14T12:21:08.126Z,31.40
2022-09-14T12:23:46.582Z,30.64
2022-09-14T12:26:29.345Z,30.07
2022-09-14T12:28:58.628Z,29.81
2022-09-14T12:31:39.018Z,29.86
2022-09-14T12:34:25.295Z,30.20
2022-09-14T12:37:16.791Z,30.37
2022-09-14T12:40:27.884Z,30.58
2022-09-14T12:42:55.921Z,30.79
2022-09-14T12:45:49.284Z,31.02
2022-09-14T12:48:55.894Z,31.19
2022-09-14T12:51:25.545Z,30.99
2022-09-14T12:53:59.188Z,31.24
2022-09-14T12:56:28.718Z,31.65
2022-09-14T12:59:04.100Z,31.70
2022-09-14T13:01:36.723Z,31.77
2022-09-14T13:04:06.336Z,32.07
2022-09-14T13:06:40.581Z,32.55
2022-09-14T13:09:16.389Z,33.03
2022-09-14T13:11:44.316Z,33.35
2022-09-14T13:14:16.907Z,33.67
2022-09-14T13:16:45.586Z,33.89
2022-09-14T13:19:25.075Z,33.64
2022-09-14T13:21:54.050Z,33.12
2022-09-14T13:24:28.921Z,32.47
2022-09-14T13:26:58.594Z,31.78
2022-09-14T13:29:27.169Z,31.37
2022-09-14T13:31:57.608Z,30.88
2022-09-14T13:34:29.523Z,30.75
2022-09-14T13:36:57.650Z,30.63
2022-09-14T13:39:29.090Z,30.61
2022-09-14T13:41:57.057Z,31.13
2022-09-14T13:44:28.222Z,31.62
2022-09-14T13:46:56.668Z,32.01
2022-09-14T13:49:24.724Z,32.33
2022-09-14T13:51:52.684Z,32.51
2022-09-14T13:54:29.759Z,32.61
2022-09-14T13:57:19.376Z,32.55
2022-09-14T14:00:06.354Z,32.18
2022-09-14T14:02:35.272Z,32.16
2022-09-14T14:05:03.395Z,32.21
2022-09-14T14:07:33.042Z,32.48
2022-09-14T14:10:04.057Z,33.17
2022-09-14T14:12:33.193Z,33.31
2022-09-14T14:15:01.822Z,32.98
2022-09-14T14:17:36.739Z,32.96
2022-09-14T14:20:35.559Z,32.70
2022-09-14T14:23:16.974Z,32.83
2022-09-14T14:25:47.943Z,32.91
2022-09-14T14:28:17.621Z,32.79
2022-09-14T14:30:45.605Z,32.73
2022-09-14T14:33:14.272Z,32.61
2022-09-14T14:35:42.704Z,32.58
2022-09-14T14:38:10.710Z,32.56
2022-09-14T14:40:38.870Z,32.76
2022-09-14T14:43:08.401Z,32.99
2022-09-14T14:45:36.772Z,33.15
2022-09-14T14:48:04.920Z,33.50
2022-09-14T14:50:34.193Z,33.60
2022-09-14T14:53:02.199Z,33.86
2022-09-14T14:55:31.841Z,34.12
2022-09-14T14:58:01.705Z,34.40
2022-09-14T15:00:33.218Z,34.81
2022-09-14T15:03:01.353Z,35.13
2022-09-14T15:05:29.317Z,35.19
2022-09-14T15:07:57.238Z,35.19
2022-09-14T15:10:26.560Z,35.16
2022-09-14T15:12:55.718Z,35.01
2022-09-14T15:15:25.548Z,34.72
2022-09-14T15:17:55.026Z,34.46
2022-09-14T15:20:23.125Z,34.21
2022-09-14T15:22:51.063Z,33.75
2022-09-14T15:25:19.750Z,33.49
2022-09-14T15:27:47.718Z,33.42
2022-09-14T15:30:16.089Z,33.44
2022-09-14T15:32:44.019Z,33.43
2022-09-14T15:35:13.980Z,33.05
2022-09-14T15:37:42.060Z,32.75
2022-09-14T15:40:11.134Z,32.37
2022-09-14T15:42:39.241Z,32.07
2022-09-14T15:45:07.915Z,32.02
2022-09-14T15:47:36.725Z,32.15
2022-09-14T15:50:05.468Z,32.22
2022-09-14T15:52:37.139Z,32.20
2022-09-14T15:55:05.659Z,32.14
2022-09-14T15:57:33.631Z,32.09
2022-09-14T16:00:01.987Z,31.93
2022-09-14T16:02:30.120Z,31.77
2022-09-14T16:04:58.086Z,31.80
2022-09-14T16:07:25.997Z,31.71
2022-09-14T16:22:09.678Z,30.57
2022-09-14T16:36:49.752Z,29.95
2022-09-14T16:44:04.632Z,27.67
2022-09-14T16:58:02.779Z,25.24
2022-09-14T17:20:36.908Z,23.93
2022-09-14T17:29:06.643Z,23.66
2022-09-14T17:40:14.727Z,23.28
2022-09-14T17:43:51.509Z,23.19
2022-09-14T18:01:33.469Z,21.64
2022-09-14T18:19:41.980Z,22.19
2022-09-14T20:05:58.638Z,20.68
2022-09-14T20:38:15.344Z,20.49
2022-09-14T21:15:48.151Z,20.41
2022-09-14T21:19:55.410Z,20.66
2022-09-14T21:57:24.585Z,20.56
